createdAt,value
2022-08-20T00:00:39.615Z,99551.03
2022-08-20T00:03:10.426Z,99544.28
2022-08-20T00:05:39.861Z,99545.94
2022-08-20T00:08:08.067Z,99540.72
2022-08-20T00:10:38.126Z,99539.75
2022-08-20T00:13:07.704Z,99543.94
2022-08-20T00:15:36.398Z,99534.63
2022-08-20T00:18:04.354Z,99530.38
2022-08-20T00:20:35.935Z,99537.13
2022-08-20T00:23:06.268Z,99540.03
2022-08-20T00:25:36.423Z,99539.28
2022-08-20T00:28:03.766Z,99545.94
2022-08-20T00:30:31.996Z,99547.00
2022-08-20T00:33:07.934Z,99546.78
2022-08-20T00:35:36.699Z,99544.44
2022-08-20T00:38:04.326Z,99541.69
2022-08-20T00:40:46.239Z,99532.56
2022-08-20T00:43:36.940Z,99545.19
2022-08-20T00:46:13.707Z,99531.34
2022-08-20T00:48:43.222Z,99538.19
2022-08-20T00:51:15.889Z,99541.22
2022-08-20T00:53:42.834Z,99540.47
2022-08-20T00:56:10.523Z,99545.50
2022-08-20T00:58:37.807Z,99540.47
2022-08-20T01:01:05.750Z,99541.41
2022-08-20T01:03:33.202Z,99542.03
2022-08-20T01:06:00.457Z,99542.03
2022-08-20T01:08:27.694Z,99543.41
2022-08-20T01:11:10.392Z,99539.09
2022-08-20T01:13:38.808Z,99532.47
2022-08-20T01:16:11.986Z,99536.25
2022-08-20T01:18:39.279Z,99529.56
2022-08-20T01:21:06.751Z,99532.00
2022-08-20T01:23:48.562Z,99528.34
2022-08-20T01:26:25.590Z,99526.97
2022-08-20T01:29:14.216Z,99529.72
2022-08-20T01:31:42.034Z,99526.47
2022-08-20T01:34:12.201Z,99526.91
2022-08-20T01:36:41.892Z,99528.63
2022-08-20T01:39:13.986Z,99531.38
2022-08-20T01:42:05.664Z,99519.81
2022-08-20T01:44:32.877Z,99524.09
2022-08-20T01:47:13.200Z,99520.28
2022-08-20T01:49:45.561Z,99523.25
2022-08-20T01:52:15.513Z,99510.28
2022-08-20T01:54:42.164Z,99512.16
2022-08-20T01:57:17.331Z,99518.06
2022-08-20T01:59:44.437Z,99513.94
2022-08-20T02:02:12.846Z,99511.44
2022-08-20T02:04:40.316Z,99515.50
2022-08-20T02:07:12.351Z,99504.78
2022-08-20T02:09:39.402Z,99508.28
2022-08-20T02:12:08.431Z,99498.94
2022-08-20T02:14:35.584Z,99502.34
2022-08-20T02:17:02.325Z,99497.50
2022-08-20T02:19:33.672Z,99500.22
2022-08-20T02:22:04.319Z,99504.44
2022-08-20T02:24:31.347Z,99505.50
2022-08-20T02:26:57.989Z,99502.72
2022-08-20T02:29:26.042Z,99499.66
2022-08-20T02:32:32.250Z,99494.19
2022-08-20T02:34:41.214Z,99490.19
2022-08-20T02:37:08.039Z,99491.97
2022-08-20T02:39:35.033Z,99485.88
2022-08-20T02:42:03.876Z,99487.28
2022-08-20T02:44:31.067Z,99486.06
2022-08-20T02:46:58.333Z,99479.81
2022-08-20T02:49:24.778Z,99471.00
2022-08-20T02:51:51.293Z,99472.25
2022-08-20T02:54:17.782Z,99470.00
2022-08-20T02:56:44.651Z,99466.16
2022-08-20T02:59:11.175Z,99454.31
2022-08-20T03:01:46.101Z,99460.16
2022-08-20T03:04:12.553Z,99442.34
2022-08-20T03:06:39.041Z,99444.41
2022-08-20T03:09:06.396Z,99439.34
2022-08-20T03:11:32.961Z,99434.16
2022-08-20T03:14:00.717Z,99432.34
2022-08-20T03:16:27.334Z,99430.28
2022-08-20T03:18:55.311Z,99429.59
2022-08-20T03:21:21.892Z,99427.53
2022-08-20T03:23:48.479Z,99430.06
2022-08-20T03:26:16.386Z,99431.41
2022-08-20T03:28:43.363Z,99433.78
2022-08-20T03:31:10.199Z,99433.09
2022-08-20T03:33:39.593Z,99436.59
2022-08-20T03:36:20.820Z,99432.25
2022-08-20T03:38:54.817Z,99438.31
2022-08-20T03:41:21.353Z,99434.16
2022-08-20T03:43:47.871Z,99435.81
2022-08-20T03:46:22.110Z,99432.66
2022-08-20T03:48:56.593Z,99437.03
2022-08-20T03:51:28.201Z,99439.59
2022-08-20T03:53:54.702Z,99444.19
2022-08-20T03:56:21.182Z,99449.69
2022-08-20T03:58:47.697Z,99444.22
2022-08-20T04:01:36.823Z,99446.38
2022-08-20T04:04:00.921Z,99451.44
2022-08-20T04:06:29.245Z,99452.66
2022-08-20T04:08:56.597Z,99448.69
2022-08-20T04:11:24.150Z,99444.00
2022-08-20T04:13:50.863Z,99451.44
2022-08-20T04:16:18.063Z,99455.38
2022-08-20T04:18:57.236Z,99461.91
2022-08-20T04:21:32.972Z,99455.59
2022-08-20T04:24:01.166Z,99456.44
2022-08-20T04:26:27.949Z,99453.72
2022-08-20T04:28:55.619Z,99444.91
2022-08-20T04:31:25.330Z,99447.69
2022-08-20T04:33:52.557Z,99456.50
2022-08-20T04:36:19.305Z,99454.41
2022-08-20T04:38:48.460Z,99453.19
2022-08-20T04:41:23.421Z,99459.91
2022-08-20T04:43:52.198Z,99457.38
2022-08-20T04:46:19.447Z,99464.94
2022-08-20T04:48:48.617Z,99460.53
2022-08-20T04:51:17.383Z,99465.78
2022-08-20T04:53:52.201Z,99472.06
2022-08-20T04:56:23.914Z,99471.56
2022-08-20T04:58:52.482Z,99470.31
2022-08-20T05:01:19.361Z,99472.59
2022-08-20T05:03:48.802Z,99480.53
2022-08-20T05:06:17.419Z,99489.88
2022-08-20T05:08:44.689Z,99480.09
2022-08-20T05:11:33.469Z,99481.75
2022-08-20T05:13:58.204Z,99480.53
2022-08-20T05:16:24.780Z,99480.88
2022-08-20T05:18:52.715Z,99486.53
2022-08-20T05:21:20.709Z,99478.63
2022-08-20T05:23:47.305Z,99482.81
2022-08-20T05:26:15.942Z,99484.88
2022-08-20T05:28:54.341Z,99492.84
2022-08-20T05:31:32.467Z,99478.59
2022-08-20T05:34:10.989Z,99484.00
2022-08-20T05:36:41.156Z,99481.88
2022-08-20T05:39:08.947Z,99479.75
2022-08-20T05:41:36.330Z,99481.47
2022-08-20T05:44:03.151Z,99489.00
2022-08-20T05:46:31.944Z,99484.38
2022-08-20T05:49:00.122Z,99494.63
2022-08-20T05:51:28.263Z,99491.13
2022-08-20T05:53:54.939Z,99492.56
2022-08-20T05:56:26.934Z,99495.75
2022-08-20T05:58:54.592Z,99499.03
2022-08-20T06:01:21.590Z,99497.38
2022-08-20T06:04:06.796Z,99502.59
2022-08-20T06:06:44.345Z,99500.66
2022-08-20T06:09:14.306Z,99500.03
2022-08-20T06:11:40.763Z,99503.63
2022-08-20T06:14:07.596Z,99506.13
2022-08-20T06:16:34.292Z,99502.78
2022-08-20T06:19:03.852Z,99504.22
2022-08-20T06:21:30.320Z,99511.09
2022-08-20T06:23:59.852Z,99517.53
2022-08-20T06:26:29.738Z,99513.91
2022-08-20T06:28:57.181Z,99516.91
2022-08-20T06:31:23.747Z,99524.44
2022-08-20T06:33:50.251Z,99527.38
2022-08-20T06:36:18.842Z,99530.72
2022-08-20T06:38:46.377Z,99527.94
2022-08-20T06:41:13.302Z,99534.06
2022-08-20T06:43:40.083Z,99536.34
2022-08-20T06:46:06.998Z,99533.19
2022-08-20T06:48:33.956Z,99557.41
2022-08-20T06:51:01.417Z,99552.03
2022-08-20T06:53:28.920Z,99553.75
2022-08-20T06:55:58.885Z,99561.09
2022-08-20T06:58:37.764Z,99550.22
2022-08-20T07:01:10.565Z,99554.06
2022-08-20T07:03:54.848Z,99555.75
2022-08-20T07:06:26.151Z,99557.03
2022-08-20T07:08:53.476Z,99552.16
2022-08-20T07:11:24.952Z,99554.66
2022-08-20T07:13:54.632Z,99559.69
2022-08-20T07:16:21.247Z,99552.16
2022-08-20T07:18:48.168Z,99554.28
2022-08-20T07:21:14.788Z,99548.19
2022-08-20T07:23:42.211Z,99550.75
2022-08-20T07:26:08.882Z,99559.38
2022-08-20T07:28:35.423Z,99556.63
2022-08-20T07:31:21.248Z,99556.81
2022-08-20T07:33:50.376Z,99565.00
2022-08-20T07:36:17.706Z,99569.19
2022-08-20T07:38:47.224Z,99572.72
2022-08-20T07:41:15.080Z,99570.38
2022-08-20T07:43:45.136Z,99573.72
2022-08-20T07:46:12.750Z,99578.31
2022-08-20T07:48:41.817Z,99572.34
2022-08-20T07:51:10.768Z,99576.88
2022-08-20T07:53:38.963Z,99584.84
2022-08-20T07:56:08.880Z,99586.50
2022-08-20T07:58:36.786Z,99586.41
2022-08-20T08:01:05.639Z,99597.75
2022-08-20T08:03:39.804Z,99599.94
2022-08-20T08:06:29.699Z,99593.56
2022-08-20T08:09:01.107Z,99583.88
2022-08-20T08:11:27.617Z,99596.84
2022-08-20T08:13:54.569Z,99597.56
2022-08-20T08:16:21.846Z,99598.56
2022-08-20T08:18:50.794Z,99603.72
2022-08-20T08:21:19.002Z,99605.91
2022-08-20T08:23:45.718Z,99611.44
2022-08-20T08:26:16.228Z,99608.41
2022-08-20T08:28:46.358Z,99619.28
2022-08-20T08:31:13.934Z,99619.84
2022-08-20T08:33:40.978Z,99627.81
2022-08-20T08:36:10.992Z,99625.38
2022-08-20T08:38:38.887Z,99627.94
2022-08-20T08:41:26.649Z,99632.78
2022-08-20T08:43:55.574Z,99630.63
2022-08-20T08:46:27.342Z,99622.03
2022-08-20T08:48:56.730Z,99624.13
2022-08-20T08:51:41.035Z,99634.13
2022-08-20T08:54:08.850Z,99625.47
2022-08-20T08:56:35.741Z,99627.75
2022-08-20T08:59:05.483Z,99625.66
2022-08-20T09:01:54.504Z,99631.16
2022-08-20T09:04:24.079Z,99625.44
2022-08-20T09:06:54.421Z,99632.34
2022-08-20T09:09:30.909Z,99630.28
2022-08-20T09:12:13.390Z,99631.94
2022-08-20T09:14:39.912Z,99639.94
2022-08-20T09:17:06.710Z,99639.88
2022-08-20T09:19:33.412Z,99637.59
2022-08-20T09:22:07.111Z,99638.66
2022-08-20T09:24:33.707Z,99631.34
2022-08-20T09:27:00.202Z,99634.41
2022-08-20T09:29:26.688Z,99632.84
2022-08-20T09:32:07.606Z,99632.41
2022-08-20T09:34:41.903Z,99631.44
2022-08-20T09:37:08.851Z,99629.78
2022-08-20T09:39:35.773Z,99625.53
2022-08-20T09:42:17.412Z,99629.22
2022-08-20T09:44:44.443Z,99632.56
2022-08-20T09:47:11.285Z,99639.81
2022-08-20T09:49:38.364Z,99635.91
2022-08-20T09:52:07.762Z,99641.66
2022-08-20T09:54:35.652Z,99639.25
2022-08-20T09:57:07.482Z,99647.13
2022-08-20T09:59:35.156Z,99646.44
2022-08-20T10:02:01.778Z,99649.78
2022-08-20T10:04:28.607Z,99649.41
2022-08-20T10:06:55.469Z,99653.81
2022-08-20T10:09:22.008Z,99649.94
2022-08-20T10:11:48.470Z,99654.88
2022-08-20T10:14:14.917Z,99655.19
2022-08-20T10:16:41.462Z,99663.25
2022-08-20T10:19:08.035Z,99660.06
2022-08-20T10:21:38.583Z,99663.63
2022-08-20T10:24:05.630Z,99664.16
2022-08-20T10:26:32.087Z,99666.19
2022-08-20T10:28:58.510Z,99668.09
2022-08-20T10:31:25.106Z,99671.28
2022-08-20T10:33:51.601Z,99671.44
2022-08-20T10:36:18.185Z,99673.56
2022-08-20T10:38:45.196Z,99684.91
2022-08-20T10:41:11.927Z,99681.16
2022-08-20T10:43:38.518Z,99682.06
2022-08-20T10:46:05.941Z,99673.72
2022-08-20T10:48:32.790Z,99673.50
2022-08-20T10:50:59.371Z,99672.34
2022-08-20T10:53:26.306Z,99680.09
2022-08-20T10:55:54.510Z,99680.50
2022-08-20T10:58:23.904Z,99675.47
2022-08-20T11:00:51.019Z,99677.03
2022-08-20T11:03:17.607Z,99672.03
2022-08-20T11:05:44.096Z,99672.50
2022-08-20T11:08:10.653Z,99681.38
2022-08-20T11:10:38.425Z,99684.16
2022-08-20T11:13:07.001Z,99679.97
2022-08-20T11:15:36.091Z,99671.53
2022-08-20T11:18:03.730Z,99684.16
2022-08-20T11:20:32.066Z,99674.34
2022-08-20T11:22:59.445Z,99680.19
2022-08-20T11:25:27.048Z,99675.22
2022-08-20T11:27:54.666Z,99676.28
2022-08-20T11:30:32.786Z,99677.91
2022-08-20T11:33:00.719Z,99682.28
2022-08-20T11:35:49.320Z,99688.13
2022-08-20T11:38:15.627Z,99695.47
2022-08-20T11:40:42.083Z,99682.91
2022-08-20T11:43:14.606Z,99693.69
2022-08-20T11:45:42.944Z,99689.28
2022-08-20T11:48:09.528Z,99694.91
2022-08-20T11:50:35.966Z,99694.69
2022-08-20T11:53:02.434Z,99702.06
2022-08-20T11:55:30.348Z,99710.44
2022-08-20T11:57:59.628Z,99701.22
2022-08-20T12:00:32.780Z,99707.56
2022-08-20T12:03:01.944Z,99713.88
2022-08-20T12:05:29.992Z,99704.44
2022-08-20T12:07:58.021Z,99704.25
2022-08-20T12:10:26.731Z,99700.47
2022-08-20T12:12:54.131Z,99707.00
2022-08-20T12:15:20.650Z,99707.38
2022-08-20T12:17:47.325Z,99710.16
2022-08-20T12:20:15.346Z,99717.31
2022-08-20T12:22:42.325Z,99714.56
2022-08-20T12:25:09.543Z,99710.97
2022-08-20T12:27:37.600Z,99716.69
2022-08-20T12:30:10.591Z,99715.63
2022-08-20T12:32:37.086Z,99722.31
2022-08-20T12:35:04.578Z,99713.91
2022-08-20T12:37:31.922Z,99715.75
2022-08-20T12:40:00.177Z,99714.09
2022-08-20T12:42:27.681Z,99711.75
2022-08-20T12:44:54.070Z,99710.91
2022-08-20T12:47:32.382Z,99713.44
2022-08-20T12:50:01.832Z,99712.97
2022-08-20T12:52:30.080Z,99712.97
2022-08-20T12:54:57.586Z,99717.22
2022-08-20T12:57:37.181Z,99719.28
2022-08-20T13:00:16.580Z,99714.66
2022-08-20T13:02:43.156Z,99716.78
2022-08-20T13:05:10.997Z,99711.31
2022-08-20T13:07:39.152Z,99711.91
2022-08-20T13:10:07.731Z,99706.69
2022-08-20T13:12:34.502Z,99707.28
2022-08-20T13:15:00.999Z,99706.00
2022-08-20T13:17:38.289Z,99703.22
2022-08-20T13:20:09.103Z,99702.41
2022-08-20T13:22:36.398Z,99710.53
2022-08-20T13:25:03.887Z,99712.03
2022-08-20T13:27:30.368Z,99720.63
2022-08-20T13:29:58.838Z,99722.25
2022-08-20T13:32:25.605Z,99722.78
2022-08-20T13:34:52.106Z,99730.31
2022-08-20T13:37:25.540Z,99731.31
2022-08-20T13:39:53.105Z,99723.25
2022-08-20T13:42:19.741Z,99724.56
2022-08-20T13:44:46.209Z,99720.91
2022-08-20T13:47:39.462Z,99723.16
2022-08-20T13:50:11.870Z,99728.91
2022-08-20T13:52:39.055Z,99734.59
2022-08-20T13:55:07.198Z,99741.81
2022-08-20T13:57:34.525Z,99737.31
2022-08-20T14:00:01.366Z,99734.13
2022-08-20T14:02:28.108Z,99735.00
2022-08-20T14:04:54.629Z,99726.19
2022-08-20T14:07:28.758Z,99733.69
2022-08-20T14:10:04.446Z,99737.31
2022-08-20T14:12:31.346Z,99734.25
2022-08-20T14:14:58.121Z,99736.78
2022-08-20T14:17:32.782Z,99745.75
2022-08-20T14:20:07.182Z,99746.06
2022-08-20T14:22:36.612Z,99751.91
2022-08-20T14:25:07.612Z,99744.38
2022-08-20T14:27:34.606Z,99737.69
2022-08-20T14:30:03.440Z,99735.13
2022-08-20T14:32:29.897Z,99740.41
2022-08-20T14:34:59.076Z,99736.63
2022-08-20T14:37:34.568Z,99728.88
2022-08-20T14:40:02.578Z,99727.00
2022-08-20T14:42:29.943Z,99729.84
2022-08-20T14:44:57.218Z,99731.16
2022-08-20T14:47:32.975Z,99719.81
2022-08-20T14:50:02.635Z,99727.63
2022-08-20T14:52:31.651Z,99728.03
2022-08-20T14:54:58.036Z,99728.88
2022-08-20T14:57:24.560Z,99719.63
2022-08-20T14:59:52.626Z,99719.56
2022-08-20T15:02:19.092Z,99716.41
2022-08-20T15:04:48.784Z,99710.31
2022-08-20T15:07:29.832Z,99722.06
2022-08-20T15:09:56.559Z,99720.81
2022-08-20T15:12:24.017Z,99717.03
2022-08-20T15:14:50.802Z,99724.75
2022-08-20T15:17:26.800Z,99716.78
2022-08-20T15:19:53.948Z,99714.66
2022-08-20T15:22:21.795Z,99712.97
2022-08-20T15:24:48.240Z,99715.69
2022-08-20T15:27:24.251Z,99709.91
2022-08-20T15:29:52.245Z,99713.56
2022-08-20T15:32:19.280Z,99719.00
2022-08-20T15:34:46.371Z,99722.75
2022-08-20T15:37:15.350Z,99718.91
2022-08-20T15:39:42.612Z,99722.41
2022-08-20T15:42:09.839Z,99719.03
2022-08-20T15:44:36.984Z,99717.13
2022-08-20T15:47:21.053Z,99718.72
2022-08-20T15:49:49.753Z,99715.34
2022-08-20T15:52:17.044Z,99721.81
2022-08-20T15:54:44.758Z,99735.47
2022-08-20T15:57:29.308Z,99728.97
2022-08-20T16:00:21.983Z,99730.41
2022-08-20T16:03:11.610Z,99735.41
2022-08-20T16:05:58.773Z,99736.31
2022-08-20T16:08:33.986Z,99738.22
2022-08-20T16:11:13.243Z,99737.16
2022-08-20T16:13:45.718Z,99742.56
2022-08-20T16:16:27.626Z,99740.03
2022-08-20T16:18:54.622Z,99735.59
2022-08-20T16:21:29.095Z,99729.09
2022-08-20T16:23:56.290Z,99727.00
2022-08-20T16:26:45.913Z,99731.25
2022-08-20T16:29:25.076Z,99734.06
2022-08-20T16:31:54.594Z,99740.16
2022-08-20T16:34:33.775Z,99743.72
2022-08-20T16:37:04.606Z,99757.81
2022-08-20T16:39:44.338Z,99754.81
2022-08-20T16:42:16.963Z,99761.56
2022-08-20T16:44:46.488Z,99755.88
2022-08-20T16:47:17.171Z,99763.22
2022-08-20T16:50:11.104Z,99762.00
2022-08-20T16:52:41.979Z,99771.91
2022-08-20T16:55:08.826Z,99771.34
2022-08-20T16:57:35.349Z,99771.28
2022-08-20T17:00:19.824Z,99773.41
2022-08-20T17:02:54.598Z,99779.94
2022-08-20T17:05:22.964Z,99783.16
2022-08-20T17:07:53.100Z,99783.00
2022-08-20T17:10:24.124Z,99785.31
2022-08-20T17:13:13.827Z,99777.75
2022-08-20T17:15:43.359Z,99775.63
2022-08-20T17:18:28.373Z,99766.81
2022-08-20T17:21:01.059Z,99771.88
2022-08-20T17:23:27.763Z,99776.91
2022-08-20T17:26:04.926Z,99784.69
2022-08-20T17:28:35.203Z,99784.06
2022-08-20T17:31:02.087Z,99790.16
2022-08-20T17:33:32.959Z,99787.03
2022-08-20T17:36:04.978Z,99787.03
2022-08-20T17:38:35.170Z,99784.09
2022-08-20T17:41:07.608Z,99786.19
2022-08-20T17:43:34.417Z,99790.81
2022-08-20T17:46:07.838Z,99782.00
2022-08-20T17:48:46.197Z,99784.97
2022-08-20T17:51:22.138Z,99782.22
2022-08-20T17:53:55.465Z,99784.97
2022-08-20T17:56:26.380Z,99785.59
2022-08-20T17:59:33.679Z,99788.09
2022-08-20T18:02:10.215Z,99792.94
2022-08-20T18:04:36.963Z,99792.94
2022-08-20T18:07:29.204Z,99797.19
2022-08-20T18:10:15.274Z,99794.66
2022-08-20T18:13:09.519Z,99791.94
2022-08-20T18:15:40.306Z,99798.00
2022-08-20T18:18:34.220Z,99799.66
2022-08-20T18:21:19.615Z,99799.06
2022-08-20T18:23:55.425Z,99800.97
2022-08-20T18:26:33.027Z,99801.19
2022-08-20T18:29:03.959Z,99805.59
2022-08-20T18:31:32.023Z,99808.53
2022-08-20T18:33:58.602Z,99808.94
2022-08-20T18:36:28.107Z,99810.41
2022-08-20T18:39:11.597Z,99802.44
2022-08-20T18:41:55.009Z,99809.38
2022-08-20T18:44:44.014Z,99802.22
2022-08-20T18:47:32.037Z,99808.09
2022-08-20T18:50:27.578Z,99805.16
2022-08-20T18:53:12.827Z,99807.69
2022-08-20T18:55:40.892Z,99817.34
2022-08-20T18:58:17.410Z,99816.50
2022-08-20T19:00:48.917Z,99817.56
2022-08-20T19:03:20.145Z,99820.50
2022-08-20T19:05:46.556Z,99823.44
2022-08-20T19:08:19.786Z,99820.50
2022-08-20T19:10:59.078Z,99822.38
2022-08-20T19:13:53.527Z,99824.47
2022-08-20T19:16:25.673Z,99822.38
2022-08-20T19:18:54.189Z,99817.81
2022-08-20T19:21:26.441Z,99816.13
2022-08-20T19:23:55.738Z,99815.28
2022-08-20T19:26:25.609Z,99826.59
2022-08-20T19:29:01.318Z,99817.59
2022-08-20T19:31:31.263Z,99811.09
2022-08-20T19:34:24.409Z,99818.44
2022-08-20T19:37:08.998Z,99817.38
2022-08-20T19:39:50.980Z,99815.69
2022-08-20T19:42:24.576Z,99814.88
2022-08-20T19:45:09.587Z,99816.28
2022-08-20T19:47:38.534Z,99807.72
2022-08-20T19:50:28.936Z,99810.66
2022-08-20T19:53:02.162Z,99803.75
2022-08-20T19:55:37.985Z,99802.91
2022-08-20T19:58:18.798Z,99812.56
2022-08-20T20:00:54.074Z,99808.13
2022-08-20T20:03:25.886Z,99804.34
2022-08-20T20:05:56.263Z,99811.06
2022-08-20T20:08:24.818Z,99805.22
2022-08-20T20:10:55.207Z,99806.25
2022-08-20T20:13:26.423Z,99809.81
2022-08-20T20:15:58.579Z,99798.09
2022-08-20T20:18:28.053Z,99803.31
2022-08-20T20:20:58.211Z,99802.28
2022-08-20T20:23:28.066Z,99802.44
2022-08-20T20:26:16.495Z,99796.16
2022-08-20T20:28:45.665Z,99791.75
2022-08-20T20:31:28.358Z,99794.25
2022-08-20T20:33:57.585Z,99788.38
2022-08-20T20:37:12.740Z,99784.59
2022-08-20T20:39:45.402Z,99783.78
2022-08-20T20:42:25.747Z,99782.94
2022-08-20T20:44:52.225Z,99785.25
2022-08-20T20:47:35.982Z,99785.03
2022-08-20T20:50:06.239Z,99780.00
2022-08-20T20:52:36.417Z,99783.41
2022-08-20T20:55:22.840Z,99784.66
2022-08-20T20:57:50.444Z,99786.75
2022-08-20T21:00:19.986Z,99782.56
2022-08-20T21:02:47.300Z,99783.19
2022-08-20T21:05:15.891Z,99777.53
2022-08-20T21:07:50.992Z,99776.91
2022-08-20T21:10:20.279Z,99771.66
2022-08-20T21:12:51.936Z,99776.69
2022-08-20T21:15:20.548Z,99767.03
2022-08-20T21:17:47.123Z,99761.81
2022-08-20T21:20:13.878Z,99750.06
2022-08-20T21:22:40.419Z,99753.19
2022-08-20T21:25:07.291Z,99752.16
2022-08-20T21:27:34.910Z,99745.19
2022-08-20T21:30:02.306Z,99750.84
2022-08-20T21:32:28.781Z,99749.41
2022-08-20T21:34:55.274Z,99746.44
2022-08-20T21:37:21.850Z,99750.84
2022-08-20T21:39:48.447Z,99749.38
2022-08-20T21:42:28.477Z,99741.44
2022-08-20T21:44:56.284Z,99749.19
2022-08-20T21:47:22.801Z,99742.88
2022-08-20T21:49:49.330Z,99750.84
2022-08-20T21:52:15.794Z,99748.97
2022-08-20T21:54:42.271Z,99746.44
2022-08-20T21:57:14.755Z,99744.34
2022-08-20T21:59:41.663Z,99740.78
2022-08-20T22:02:08.272Z,99748.56
2022-08-20T22:04:35.677Z,99734.88
2022-08-20T22:07:03.639Z,99741.19
2022-08-20T22:09:31.501Z,99737.41
2022-08-20T22:12:01.012Z,99740.56
2022-08-20T22:14:27.551Z,99739.72
2022-08-20T22:16:54.039Z,99739.31
2022-08-20T22:19:20.707Z,99743.72
2022-08-20T22:21:47.222Z,99738.66
2022-08-20T22:24:13.999Z,99743.91
2022-08-20T22:26:41.590Z,99743.28
2022-08-20T22:29:10.129Z,99735.13
2022-08-20T22:31:39.195Z,99741.00
2022-08-20T22:34:05.930Z,99739.78
2022-08-20T22:36:33.316Z,99742.91
2022-08-20T22:39:00.327Z,99752.16
2022-08-20T22:41:27.075Z,99739.97
2022-08-20T22:43:56.950Z,99737.69
2022-08-20T22:46:26.965Z,99740.16
2022-08-20T22:48:54.533Z,99743.56
2022-08-20T22:51:32.848Z,99744.81
2022-08-20T22:54:03.888Z,99743.56
2022-08-20T22:56:30.582Z,99745.66
2022-08-20T22:58:59.043Z,99747.94
2022-08-20T23:01:26.868Z,99749.41
2022-08-20T23:03:55.327Z,99754.41
2022-08-20T23:06:22.921Z,99743.97
2022-08-20T23:08:49.415Z,99746.28
2022-08-20T23:11:15.922Z,99746.88
2022-08-20T23:13:42.374Z,99745.59
2022-08-20T23:16:09.431Z,99744.34
2022-08-20T23:18:36.822Z,99753.16
2022-08-20T23:21:04.290Z,99747.28
2022-08-20T23:23:31.560Z,99751.25
2022-08-20T23:25:58.819Z,99750.44
2022-08-20T23:28:26.263Z,99750.25
2022-08-20T23:30:53.273Z,99751.47
2022-08-20T23:33:20.343Z,99742.44
2022-08-20T23:35:47.187Z,99740.56
2022-08-20T23:38:13.698Z,99734.25
2022-08-20T23:40:40.258Z,99740.78
2022-08-20T23:43:08.052Z,99752.31
2022-08-20T23:45:34.933Z,99736.84
2022-08-20T23:48:06.947Z,99746.69
2022-08-20T23:50:33.578Z,99744.38
2022-08-20T23:52:59.998Z,99744.81
2022-08-20T23:55:26.855Z,99741.19
2022-08-20T23:57:53.868Z,99742.25
